ZPPP

Kunming Wujiaba International Airport

Airport
ICAO code
ZPPP
IATA Code
KMG
Summary
ICAO Region
APAC
ICAO Territory
Location

Kunming, Yunnan,

Serving
Kunming
Elevation
6217 ft
Coordinates
24° 59' 33" N , 102° 44' 37" E
KCC
Airport RE
Hot and High Operations
Metar
Observation
ZPPP 090100Z 21002MPS CAVOK 08/02 Q1020 BECMG TL0250 23009MPS
Station
Kunming
Date/Time
2023-02-09 01:00:00
Wind direction
210°
Lowest cloud amount
clouds and visibility OK
Temperature
8°C
Dew point
2°C
Humidity
65%
QNH
1020 hPa
Weather condition
n/a

Description

Kunming Wujiaba International Airport is an airport located in Kunming, Yunnan, People's Republic of China. The airport is located 4 km south-east of metropolitan Kunming.

Climatology

Located at an elevation of 1,890 m on the Yungui Plateau with low latitude and high elevation, Kunming has one of the mildest climates in China, characterised by short, cool dry winters with mild days and crisp nights, and long, warm and humid summers, but much cooler than the lowlands. The weather never gets very hot in summer; the temperature has exceeded 30 °C only on a handful of occasions. However, freak snowfalls occur in occasional winters. Controlled by a subtropical highland climate (Köppen climate classification Cwb)., average highs are around 15 °C in winter and 24 °C in summer.

Airport map

Aerial View

SKYbrary Partners:

Safety knowledge contributed by: